TimeEST,TemperatureF,Dew PointF,Humidity,Sea Level PressureIn,VisibilityMPH,Wind Direction,Wind SpeedMPH,Gust SpeedMPH,PrecipitationIn,Events,Conditions,WindDirDegrees,DateUTC
12:00 AM,35.6,33.8,93,30.24,6.0,ENE,6.9,-,N/A,,Mostly Cloudy,70,2012-11-20 05:00:00
1:00 AM,36,33,86,30.23,6,East,5.8,,,,,80,2012-11-20 06:00:00
1:00 AM,35.6,33.8,93,30.22,6.0,ENE,6.9,-,N/A,,Mostly Cloudy,70,2012-11-20 06:00:00
1:43 AM,35.6,33.8,93,30.21,4.0,East,4.6,-,N/A,,Mostly Cloudy,80,2012-11-20 06:43:00
2:00 AM,35.6,33.8,93,30.22,4.0,ESE,3.5,-,N/A,,Overcast,120,2012-11-20 07:00:00
2:26 AM,33.8,32.0,93,30.21,3.0,East,5.8,-,N/A,,Overcast,100,2012-11-20 07:26:00
2:42 AM,33.8,33.8,100,30.21,2.5,East,5.8,-,N/A,,Overcast,80,2012-11-20 07:42:00
3:00 AM,35.6,33.8,93,30.20,2.5,East,5.8,-,N/A,,Overcast,80,2012-11-20 08:00:00
4:00 AM,33.8,32.0,93,30.19,1.5,ENE,3.5,-,N/A,,Overcast,70,2012-11-20 09:00:00
4:09 AM,32.0,32.0,100,30.20,1.0,Calm,Calm,-,N/A,,Overcast,0,2012-11-20 09:09:00
4:22 AM,33.8,32.0,93,30.20,0.2,Calm,Calm,-,N/A,Fog,Fog,0,2012-11-20 09:22:00
4:27 AM,32.0,32.0,100,30.20,0.1,NNE,2.3,-,N/A,Fog,Fog,20,2012-11-20 09:27:00
5:00 AM,33.8,32.0,93,30.19,0.1,East,5.8,-,N/A,Fog,Fog,90,2012-11-20 10:00:00
6:00 AM,33.8,33.8,100,30.19,0.1,East,4.6,-,N/A,Fog,Fog,80,2012-11-20 11:00:00
7:00 AM,34,34,100,30.20,0,East,3.5,,,,,80,2012-11-20 12:00:00
7:00 AM,33.8,33.8,100,30.20,0.1,East,3.5,-,N/A,Fog,Fog,90,2012-11-20 12:00:00
8:00 AM,33.8,33.8,100,30.20,0.2,ESE,4.6,-,N/A,Fog,Fog,110,2012-11-20 13:00:00
8:20 AM,35.6,35.6,100,30.19,0.5,Calm,Calm,-,N/A,Fog,Fog,0,2012-11-20 13:20:00
8:41 AM,37.4,37.4,100,30.19,1.0,East,5.8,-,N/A,,Overcast,100,2012-11-20 13:41:00
9:00 AM,41.0,41.0,100,30.19,1.5,ESE,6.9,-,N/A,,Overcast,110,2012-11-20 14:00:00
9:11 AM,41.0,41.0,100,30.19,2.0,SE,6.9,-,N/A,,Overcast,130,2012-11-20 14:11:00
10:00 AM,42.8,41.0,93,30.19,3.0,East,5.8,-,N/A,,Overcast,90,2012-11-20 15:00:00
11:00 AM,44.6,41.0,87,30.18,3.0,ESE,8.1,-,N/A,,Overcast,120,2012-11-20 16:00:00
12:00 PM,48.2,41.0,76,30.16,3.0,SSE,4.6,-,N/A,,Overcast,150,2012-11-20 17:00:00
1:00 PM,51,41,59,30.14,6,SSE,6.9,,,,Overcast,150,2012-11-20 18:00:00
1:00 PM,51.8,41.0,67,30.13,6.0,SSE,5.8,-,N/A,,Overcast,160,2012-11-20 18:00:00
2:00 PM,51.8,41.0,67,30.13,8.0,SSW,5.8,-,N/A,,Overcast,200,2012-11-20 19:00:00
3:00 PM,51.8,37.4,58,30.13,10.0,SSW,4.6,-,N/A,,Mostly Cloudy,200,2012-11-20 20:00:00
4:00 PM,51.8,41.0,67,30.14,8.0,North,4.6,-,N/A,,Mostly Cloudy,360,2012-11-20 21:00:00
5:00 PM,48.2,41.0,76,30.15,7.0,NE,3.5,-,N/A,,Overcast,40,2012-11-20 22:00:00
6:00 PM,46.4,41.0,81,30.16,8.0,Calm,Calm,-,N/A,,Overcast,0,2012-11-20 23:00:00
7:00 PM,44,38,73,30.17,7,ESE,8.1,,,,,110,2012-11-21 00:00:00
7:00 PM,44.6,37.4,76,30.17,8.0,ESE,8.1,-,N/A,,Mostly Cloudy,120,2012-11-21 00:00:00
8:00 PM,41.0,37.4,87,30.17,6.0,SE,4.6,-,N/A,,Scattered Clouds,130,2012-11-21 01:00:00
9:00 PM,41.0,39.2,93,30.17,5.0,East,6.9,-,N/A,,Mostly Cloudy,80,2012-11-21 02:00:00
10:00 PM,37.4,35.6,93,30.18,4.0,East,4.6,-,N/A,,Mostly Cloudy,80,2012-11-21 03:00:00
11:00 PM,39.2,37.4,93,30.18,4.0,East,4.6,-,N/A,,Scattered Clouds,100,2012-11-21 04:00:00
11:52 PM,35.6,35.6,100,30.19,2.5,ENE,4.6,-,N/A,,Mostly Cloudy,70,2012-11-21 04:52:00